Time;durP1;ratioP1;P1;durP2;ratioP2;P2;SDS_P1;SDS_P2;PMS_P1;PMS_P2;Temp;Humidity;BMP_temperature;BMP_pressure;BME280_temperature;BME280_humidity;BME280_pressure;Samples;Min_cycle;Max_cycle;Signal;HPM_P1;HPM_P2
2022/08/26 00:01:09;;;;;;;6.00;4.00;;;;;;;17.34;73.38;100532.11;89485;1254;82322;-59
2022/08/26 00:03:23;;;;;;;10.40;4.20;;;;;;;17.32;73.47;100527.23;89471;1263;97505;-60
2022/08/26 00:05:34;;;;;;;11.10;4.80;;;;;;;17.28;73.56;100527.84;89480;1262;87329;-59
2022/08/26 00:07:43;;;;;;;9.60;4.60;;;;;;;17.25;73.63;100527.04;89458;1254;94013;-59
2022/08/26 00:09:55;;;;;;;7.20;3.80;;;;;;;17.23;73.55;100529.06;89473;1263;81386;-60
2022/08/26 00:12:08;;;;;;;7.00;3.70;;;;;;;17.21;73.73;100523.93;89472;1263;81273;-59
2022/08/26 00:14:26;;;;;;;8.80;3.70;;;;;;;17.19;73.78;100526.81;89475;1262;97728;-59
2022/08/26 00:16:38;;;;;;;11.20;4.50;;;;;;;17.18;73.84;100523.85;89462;1263;88172;-60
2022/08/26 00:18:48;;;;;;;7.60;3.80;;;;;;;17.19;73.79;100520.71;89475;1263;94017;-59
2022/08/26 00:21:00;;;;;;;11.00;4.10;;;;;;;17.21;73.84;100520.49;89442;1264;80494;-59
2022/08/26 00:23:09;;;;;;;10.10;4.60;;;;;;;17.21;74.10;100518.05;89430;1264;81417;-60
2022/08/26 00:25:20;;;;;;;9.10;3.80;;;;;;;17.22;74.12;100522.11;89456;1263;97724;-59
2022/08/26 00:27:32;;;;;;;7.50;3.80;;;;;;;17.19;74.26;100522.08;89423;1262;88585;-60
2022/08/26 00:29:50;;;;;;;7.70;4.30;;;;;;;17.12;74.39;100519.13;89442;1262;94446;-59
2022/08/26 00:32:03;;;;;;;7.90;4.20;;;;;;;17.02;74.42;100517.48;89454;1263;81012;-61
2022/08/26 00:34:15;;;;;;;;;;;;;;;16.99;74.50;100513.37;89433;1263;81259;-59
2022/08/26 00:36:27;;;;;;;10.70;4.10;;;;;;;16.96;74.62;100517.43;89439;1263;99332;-60
2022/08/26 00:38:41;;;;;;;;;;;;;;;16.94;74.79;100516.96;89452;1264;87636;-61
2022/08/26 00:40:56;;;;;;;8.10;4.20;;;;;;;16.91;74.90;100514.33;89279;1263;93597;-58
2022/08/26 00:43:09;;;;;;;7.00;3.90;;;;;;;16.88;74.92;100514.34;89478;1262;80827;-60
2022/08/26 00:45:19;;;;;;;9.60;4.40;;;;;;;16.86;75.02;100516.67;89490;1264;82947;-60
2022/08/26 00:47:38;;;;;;;8.00;3.80;;;;;;;16.85;75.12;100517.73;89503;1262;97189;-60
2022/08/26 00:49:53;;;;;;;9.20;3.90;;;;;;;16.84;75.03;100521.35;89496;1263;87869;-59
2022/08/26 00:52:08;;;;;;;7.80;3.90;;;;;;;16.83;75.10;100520.14;89527;1263;94517;-60
2022/08/26 00:54:25;;;;;;;8.60;4.00;;;;;;;16.82;75.20;100522.39;89455;1264;81608;-59
2022/08/26 00:56:38;;;;;;;6.40;4.30;;;;;;;16.81;75.21;100525.75;89546;1261;81962;-60
2022/08/26 00:58:50;;;;;;;7.10;4.50;;;;;;;16.81;75.25;100530.59;89483;1264;97691;-60
2022/08/26 01:01:06;;;;;;;7.40;3.90;;;;;;;16.79;75.18;100523.08;89450;1263;88106;-59
2022/08/26 01:03:22;;;;;;;8.20;3.90;;;;;;;16.80;75.17;100528.02;89412;1262;95291;-60
2022/08/26 01:05:35;;;;;;;9.10;4.60;;;;;;;16.79;75.36;100528.92;89395;1263;80893;-58
2022/08/26 01:07:43;;;;;;;9.60;4.60;;;;;;;16.75;75.41;100526.78;89419;1263;83061;-61
2022/08/26 01:09:56;;;;;;;9.20;4.40;;;;;;;16.73;75.48;100526.05;89414;1263;99022;-60
2022/08/26 01:12:08;;;;;;;6.50;4.30;;;;;;;16.67;75.51;100525.83;89489;1262;87358;-61
2022/08/26 01:14:27;;;;;;;11.10;4.40;;;;;;;16.66;75.60;100524.48;89453;1263;94418;-61
2022/08/26 01:16:38;;;;;;;9.50;4.20;;;;;;;16.66;75.57;100521.52;89418;1263;80521;-59
2022/08/26 01:18:58;;;;;;;9.40;4.10;;;;;;;16.62;75.63;100521.67;89478;1262;81568;-60
2022/08/26 01:21:15;;;;;;;6.90;4.50;;;;;;;16.56;75.75;100519.73;89441;1263;98778;-59
2022/08/26 01:23:34;;;;;;;9.30;4.70;;;;;;;16.51;75.85;100519.66;89467;1262;88043;-60
2022/08/26 01:25:49;;;;;;;11.20;4.20;;;;;;;16.48;76.00;100522.16;89455;1264;94087;-59
2022/08/26 01:28:13;;;;;;;6.60;4.20;;;;;;;16.45;76.05;100517.67;89441;1263;80765;-60
2022/08/26 01:30:26;;;;;;;6.00;4.00;;;;;;;16.43;76.26;100517.73;89470;1263;82241;-60
2022/08/26 01:32:42;;;;;;;8.90;4.10;;;;;;;16.44;76.37;100519.80;89456;1263;99740;-60
2022/08/26 01:34:53;;;;;;;7.70;4.00;;;;;;;16.45;76.51;100517.07;89446;1262;88305;-60
2022/08/26 01:37:10;;;;;;;7.90;4.20;;;;;;;16.49;76.62;100520.18;89415;1263;94203;-62
2022/08/26 01:39:22;;;;;;;8.20;4.30;;;;;;;16.50;76.55;100519.04;89482;1263;79709;-58
2022/08/26 01:41:37;;;;;;;10.10;4.50;;;;;;;16.48;76.69;100521.86;89482;1263;80188;-59
2022/08/26 01:43:51;;;;;;;9.30;4.10;;;;;;;16.48;76.79;100523.21;89503;1263;98169;-60
2022/08/26 01:46:02;;;;;;;7.90;4.40;;;;;;;16.47;76.75;100517.39;89442;1262;88957;-60
2022/08/26 01:48:18;;;;;;;8.90;4.30;;;;;;;16.44;76.88;100518.63;89462;1262;92742;-60
2022/08/26 01:50:34;;;;;;;9.30;5.10;;;;;;;16.41;76.87;100518.08;89433;1262;80507;-59
2022/08/26 01:52:50;;;;;;;9.70;4.80;;;;;;;16.39;77.01;100514.91;89456;1263;82245;-61
2022/08/26 01:55:02;;;;;;;7.10;4.20;;;;;;;16.38;77.01;100519.73;89394;1263;97997;-60
2022/08/26 01:57:18;;;;;;;9.40;5.00;;;;;;;16.38;77.17;100514.38;89429;1263;88211;-60
2022/08/26 01:59:34;;;;;;;12.30;4.50;;;;;;;16.37;77.20;100520.14;89397;1262;94058;-62
2022/08/26 02:01:43;;;;;;;8.50;5.00;;;;;;;16.37;77.10;100518.63;89228;1263;81538;-60
2022/08/26 02:04:13;;;;;;;11.80;4.00;;;;;;;16.40;77.16;100516.39;89345;1262;82900;-61
2022/08/26 02:06:28;;;;;;;7.20;4.40;;;;;;;16.41;77.09;100520.02;89460;1260;97155;-60
2022/08/26 02:08:44;;;;;;;8.40;5.20;;;;;;;16.40;77.24;100517.11;89490;1260;88129;-61
2022/08/26 02:10:57;;;;;;;9.60;4.80;;;;;;;16.37;77.19;100517.95;89457;1260;95157;-59
2022/08/26 02:13:14;;;;;;;8.70;4.70;;;;;;;16.34;77.25;100521.07;89486;1260;81404;-60
2022/08/26 02:15:26;;;;;;;10.80;4.60;;;;;;;16.33;77.20;100521.08;89519;1260;82312;-61
2022/08/26 02:17:42;;;;;;;6.30;4.20;;;;;;;16.31;77.33;100520.14;89546;1260;97111;-58
2022/08/26 02:19:52;;;;;;;9.40;4.30;;;;;;;16.30;77.35;100523.92;89498;1260;88211;-61
2022/08/26 02:22:06;;;;;;;9.70;4.90;;;;;;;16.29;77.47;100525.11;89505;1260;94139;-60
2022/08/26 02:24:22;;;;;;;12.00;4.10;;;;;;;16.29;77.52;100518.18;89482;1260;81578;-60
2022/08/26 02:26:36;;;;;;;8.90;4.30;;;;;;;16.29;77.76;100515.84;89508;1260;82209;-60
2022/08/26 02:28:55;;;;;;;10.30;4.60;;;;;;;16.31;77.70;100515.65;89497;1260;99192;-61
2022/08/26 02:31:05;;;;;;;8.90;4.20;;;;;;;16.34;77.68;100515.88;89528;1260;87910;-60
2022/08/26 02:33:18;;;;;;;8.70;5.50;;;;;;;16.33;77.78;100515.38;89469;1260;94148;-60
2022/08/26 02:35:31;;;;;;;7.10;4.20;;;;;;;16.34;77.73;100513.49;89439;1260;80546;-60
2022/08/26 02:37:43;;;;;;;9.80;4.80;;;;;;;16.35;77.74;100513.35;89511;1260;80125;-60
2022/08/26 02:39:54;;;;;;;6.00;4.40;;;;;;;16.32;77.89;100516.82;89470;1260;98856;-60
2022/08/26 02:42:07;;;;;;;8.00;4.10;;;;;;;16.30;77.90;100518.44;89494;1260;86724;-60
2022/08/26 02:44:19;;;;;;;8.00;4.50;;;;;;;16.28;77.86;100522.30;89487;1260;94467;-60
2022/08/26 02:46:31;;;;;;;8.20;4.60;;;;;;;16.29;77.90;100521.71;89492;1254;81542;-59
2022/08/26 02:48:43;;;;;;;10.10;4.40;;;;;;;16.29;77.99;100520.95;89483;1260;80505;-61
2022/08/26 02:50:58;;;;;;;9.40;4.40;;;;;;;16.27;78.11;100521.23;89446;1260;97939;-61
2022/08/26 02:53:08;;;;;;;7.70;3.90;;;;;;;16.25;78.19;100520.41;89469;1260;87242;-60
2022/08/26 02:55:21;;;;;;;7.10;4.10;;;;;;;16.26;78.10;100516.17;89500;1260;94609;-60
2022/08/26 02:57:33;;;;;;;10.60;5.80;;;;;;;16.26;78.14;100517.34;89473;1260;79746;-59
2022/08/26 02:59:46;;;;;;;8.20;4.20;;;;;;;16.25;78.19;100519.15;89517;1260;81623;-60
2022/08/26 03:01:58;;;;;;;12.30;5.70;;;;;;;16.25;78.13;100516.52;89469;1260;98726;-60
2022/08/26 03:04:12;;;;;;;7.50;4.40;;;;;;;16.22;78.03;100509.98;89499;1260;88150;-60
2022/08/26 03:06:23;;;;;;;7.20;4.40;;;;;;;16.15;78.12;100511.90;89484;1260;95196;-59
2022/08/26 03:08:34;;;;;;;6.50;4.10;;;;;;;16.13;78.11;100509.40;89447;1260;79603;-60
2022/08/26 03:10:43;;;;;;;5.70;3.70;;;;;;;16.09;78.18;100508.25;89459;1260;81885;-60
2022/08/26 03:12:52;;;;;;;7.90;4.60;;;;;;;16.04;78.31;100510.81;89414;1260;98134;-60
2022/08/26 03:15:04;;;;;;;8.20;4.60;;;;;;;16.03;78.31;100512.36;89496;1260;89473;-61
2022/08/26 03:17:14;;;;;;;12.30;4.30;;;;;;;16.00;78.36;100511.77;89513;1260;95540;-58
2022/08/26 03:19:27;;;;;;;8.90;4.60;;;;;;;16.00;78.44;100513.58;89487;1260;83132;-60
2022/08/26 03:21:39;;;;;;;7.40;4.90;;;;;;;15.99;78.41;100514.80;89476;1260;82655;-59
2022/08/26 03:23:48;;;;;;;6.70;4.00;;;;;;;15.98;78.46;100512.41;89451;1260;99832;-59
2022/08/26 03:26:03;;;;;;;7.10;3.90;;;;;;;15.95;78.49;100514.33;89460;1260;88819;-60
2022/08/26 03:28:12;;;;;;;7.40;4.10;;;;;;;15.95;78.37;100514.88;89457;1260;94532;-61
2022/08/26 03:30:39;;;;;;;9.70;5.40;;;;;;;15.93;78.48;100514.88;89479;1260;81997;-60
2022/08/26 03:32:51;;;;;;;6.10;4.20;;;;;;;15.92;78.58;100516.91;89484;1260;81814;-61
2022/08/26 03:35:01;;;;;;;10.50;5.20;;;;;;;15.90;78.50;100514.39;89453;1260;98415;-60
2022/08/26 03:37:10;;;;;;;6.80;5.10;;;;;;;15.85;78.66;100512.59;89518;1260;87462;-60
2022/08/26 03:39:20;;;;;;;11.00;5.00;;;;;;;15.83;78.67;100513.11;89455;1253;95251;-60
2022/08/26 03:41:35;;;;;;;8.10;4.70;;;;;;;15.80;78.73;100510.83;89487;1260;81061;-60
2022/08/26 03:43:50;;;;;;;10.50;4.40;;;;;;;15.78;78.73;100507.20;89449;1260;83012;-60
2022/08/26 03:45:59;;;;;;;12.90;4.90;;;;;;;15.76;78.82;100508.02;89468;1260;97066;-60
2022/08/26 03:48:10;;;;;;;11.30;4.80;;;;;;;15.77;78.91;100506.91;89459;1260;86974;-61
2022/08/26 03:50:22;;;;;;;8.70;5.00;;;;;;;15.80;78.96;100509.70;89452;1260;93682;-60
2022/08/26 03:52:31;;;;;;;10.70;5.20;;;;;;;15.82;78.98;100507.25;89510;1260;80751;-60
2022/08/26 03:54:46;;;;;;;19.50;5.60;;;;;;;15.84;79.04;100506.90;89509;1260;82297;-60
2022/08/26 03:56:56;;;;;;;16.80;5.90;;;;;;;15.87;79.12;100506.71;89484;1260;97753;-60
2022/08/26 03:59:08;;;;;;;11.80;5.10;;;;;;;15.94;79.24;100509.17;89499;1260;85279;-59
2022/08/26 04:01:18;;;;;;;9.50;5.20;;;;;;;15.98;79.11;100511.75;89514;1260;94935;-59
2022/08/26 04:06:17;;;;;;;11.60;4.80;;;;;;;16.06;79.20;100506.31;89152;1263;81827;-59
2022/08/26 04:08:30;;;;;;;12.30;4.90;;;;;;;16.13;79.12;100506.27;89082;1263;97388;-60
2022/08/26 04:10:43;;;;;;;10.60;4.90;;;;;;;16.18;79.22;100507.42;89150;1263;86978;-60
2022/08/26 04:12:54;;;;;;;8.60;5.30;;;;;;;16.22;79.20;100501.98;89484;1260;94213;-61
2022/08/26 04:15:09;;;;;;;13.60;5.50;;;;;;;16.30;79.10;100503.88;89468;1260;80107;-61
2022/08/26 04:17:19;;;;;;;12.40;4.80;;;;;;;16.37;79.15;100504.94;89487;1260;81980;-60
2022/08/26 04:19:30;;;;;;;8.10;4.80;;;;;;;16.46;79.09;100501.08;89222;1262;97782;-58
2022/08/26 04:21:43;;;;;;;7.10;5.00;;;;;;;16.55;79.14;100506.13;89489;1260;88809;-60
2022/08/26 04:23:57;;;;;;;13.90;4.90;;;;;;;16.66;79.15;100503.14;89092;1263;93675;-61
2022/08/26 04:26:08;;;;;;;12.60;4.80;;;;;;;16.77;79.06;100501.58;89452;1260;81422;-60
2022/08/26 04:28:21;;;;;;;11.30;5.10;;;;;;;16.88;79.08;100499.55;89506;1260;82432;-60
2022/08/26 04:30:38;;;;;;;14.70;5.30;;;;;;;17.02;79.05;100502.16;89455;1260;98705;-60
2022/08/26 04:32:51;;;;;;;14.40;5.30;;;;;;;17.21;79.20;100499.98;89502;1260;87801;-60
2022/08/26 04:35:00;;;;;;;15.00;5.70;;;;;;;17.94;79.40;100503.81;89466;1260;95278;-60
2022/08/26 04:37:10;;;;;;;18.00;6.00;;;;;;;19.11;78.88;100499.60;89480;1260;81750;-60
2022/08/26 04:39:22;;;;;;;23.00;6.10;;;;;;;20.26;77.90;100499.29;89487;1260;80748;-60
2022/08/26 04:41:32;;;;;;;23.20;6.60;;;;;;;21.22;76.50;100497.52;89538;1260;97988;-61
2022/08/26 04:43:43;;;;;;;20.50;7.30;;;;;;;22.08;75.23;100496.17;89523;1260;87174;-61
2022/08/26 04:45:56;;;;;;;21.60;6.40;;;;;;;22.82;73.79;100495.67;89536;1260;94351;-61
2022/08/26 04:48:06;;;;;;;26.90;6.80;;;;;;;23.35;72.49;100495.10;89520;1260;80835;-59
2022/08/26 04:50:22;;;;;;;31.80;8.80;;;;;;;23.68;70.87;100495.10;89508;1260;82674;-60
2022/08/26 04:52:33;;;;;;;33.70;8.60;;;;;;;23.91;69.68;100491.92;89537;1260;97879;-61
2022/08/26 04:54:42;;;;;;;35.40;9.00;;;;;;;23.94;68.52;100491.04;89536;1260;87947;-61
2022/08/26 04:56:59;;;;;;;36.60;8.60;;;;;;;23.56;67.89;100494.30;89483;1260;94151;-61
2022/08/26 04:59:16;;;;;;;30.70;7.70;;;;;;;23.02;67.90;100497.55;89498;1260;79695;-59
2022/08/26 05:01:25;;;;;;;21.00;7.30;;;;;;;22.57;68.28;100500.91;89567;1260;82100;-60
2022/08/26 05:03:35;;;;;;;26.40;7.90;;;;;;;22.25;68.38;100507.29;89490;1260;99066;-61
2022/08/26 05:05:47;;;;;;;30.90;9.40;;;;;;;22.00;68.47;100508.33;89488;1260;87853;-60
2022/08/26 05:07:59;;;;;;;22.30;8.30;;;;;;;21.77;68.58;100502.70;89480;1260;94288;-60
2022/08/26 05:10:11;;;;;;;22.80;7.70;;;;;;;21.67;68.96;100501.50;89456;1253;80116;-60
2022/08/26 05:12:20;;;;;;;17.60;7.30;;;;;;;21.56;69.05;100498.08;89477;1260;81135;-60
2022/08/26 05:14:30;;;;;;;24.90;7.80;;;;;;;21.62;69.13;100497.21;89453;1260;98990;-61
2022/08/26 05:16:39;;;;;;;25.90;8.40;;;;;;;21.70;69.05;100500.80;89488;1260;88629;-61
2022/08/26 05:18:52;;;;;;;32.90;8.30;;;;;;;21.82;68.94;100501.91;89512;1260;93913;-60
2022/08/26 05:21:02;;;;;;;37.50;10.10;;;;;;;21.97;68.68;100503.41;89491;1260;79312;-60
2022/08/26 05:23:12;;;;;;;33.50;10.10;;;;;;;22.15;68.64;100502.96;89535;1260;82811;-60
2022/08/26 05:25:22;;;;;;;38.30;10.80;;;;;;;22.44;68.79;100503.35;89508;1260;97120;-60
2022/08/26 05:27:31;;;;;;;30.60;9.40;;;;;;;22.98;68.50;100500.39;89502;1260;87501;-59
2022/08/26 05:29:41;;;;;;;31.20;9.60;;;;;;;23.16;67.87;100500.31;89492;1260;94405;-59
2022/08/26 05:31:55;;;;;;;25.20;8.60;;;;;;;23.28;67.30;100502.57;89520;1260;79233;-60
2022/08/26 05:34:08;;;;;;;25.80;9.60;;;;;;;23.43;66.79;100501.14;89482;1260;83165;-60
2022/08/26 05:36:27;;;;;;;31.80;10.00;;;;;;;23.79;66.68;100500.35;89488;1260;99170;-60
2022/08/26 05:38:42;;;;;;;23.50;9.00;;;;;;;24.55;65.94;100500.93;89524;1260;88234;-61
2022/08/26 05:40:55;;;;;;;27.20;9.10;;;;;;;25.10;65.35;100498.21;89172;1262;93755;-60
2022/08/26 05:43:09;;;;;;;30.80;9.60;;;;;;;25.34;64.65;100499.17;89474;1260;79190;-60
2022/08/26 05:45:23;;;;;;;26.00;8.50;;;;;;;25.68;64.36;100500.37;89484;1260;82321;-61
2022/08/26 05:47:31;;;;;;;21.60;9.00;;;;;;;25.76;63.51;100503.76;89462;1260;98866;-60
2022/08/26 05:49:40;;;;;;;24.90;8.00;;;;;;;25.86;63.28;100507.46;89456;1260;88706;-61
2022/08/26 05:51:52;;;;;;;24.70;8.60;;;;;;;26.34;62.80;100510.27;89493;1260;94527;-59
2022/08/26 05:54:09;;;;;;;28.50;10.80;;;;;;;27.04;62.54;100512.55;89450;1260;78856;-61
2022/08/26 05:56:23;;;;;;;25.00;10.30;;;;;;;27.30;61.38;100509.91;89525;1260;82183;-60
2022/08/26 05:58:33;;;;;;;23.50;9.70;;;;;;;27.42;60.41;100510.27;89481;1260;99206;-61
2022/08/26 06:00:43;;;;;;;25.20;9.80;;;;;;;27.40;59.84;100510.84;89496;1260;87020;-60
2022/08/26 06:02:53;;;;;;;24.30;8.90;;;;;;;27.50;59.60;100506.61;89501;1260;94124;-61
2022/08/26 06:05:08;;;;;;;30.60;9.40;;;;;;;28.02;58.92;100502.13;89465;1254;79058;-61
2022/08/26 06:08:09;;;;;;;28.30;9.60;;;;;;;28.56;58.17;100504.11;89511;1260;82680;-60
2022/08/26 06:09:50;;;;;;;39.90;13.20;;;;;;;29.79;56.55;100499.98;89489;1260;98850;-60
2022/08/26 06:12:00;;;;;;;40.30;12.40;;;;;;;31.09;54.78;100499.98;89520;1260;87327;-61
2022/08/26 06:14:10;;;;;;;32.50;10.80;;;;;;;31.20;52.57;100497.60;89510;1260;94052;-60
2022/08/26 06:16:22;;;;;;;30.40;11.40;;;;;;;30.61;51.62;100498.31;89491;1260;79604;-61
2022/08/26 06:18:36;;;;;;;30.90;10.40;;;;;;;30.24;51.38;100495.96;89541;1260;82370;-62
2022/08/26 06:20:49;;;;;;;28.80;9.60;;;;;;;29.66;50.60;100496.78;89484;1260;98191;-61
2022/08/26 06:25:40;;;;;;;18.10;8.40;;;;;;;29.50;50.31;100494.39;89445;1260;94809;-61
2022/08/26 06:27:50;;;;;;;;;;;;;;;30.00;50.11;100495.11;89490;1260;79884;-61
2022/08/26 06:30:02;;;;;;;25.30;8.70;;;;;;;30.50;49.82;100496.73;89508;1260;81695;-61
2022/08/26 06:32:19;;;;;;;23.00;8.30;;;;;;;30.99;49.05;100497.73;89536;1260;96096;-61
2022/08/26 06:34:31;;;;;;;26.80;8.30;;;;;;;31.11;48.39;100500.09;89164;1260;420614;-60
2022/08/26 06:36:43;;;;;;;20.80;7.50;;;;;;;31.41;46.88;100505.70;89516;1260;95424;-64
2022/08/26 06:39:01;;;;;;;26.70;8.60;;;;;;;31.49;46.49;100505.80;89456;1260;80548;-64
2022/08/26 06:41:12;;;;;;;44.50;11.00;;;;;;;31.75;45.09;100507.78;89157;1262;82885;-65
2022/08/26 06:43:28;;;;;;;35.80;10.40;;;;;;;31.45;45.09;100510.71;89483;1260;98016;-65
2022/08/26 06:45:37;;;;;;;28.70;9.60;;;;;;;30.97;45.15;100509.38;89505;1260;88161;-65
2022/08/26 06:47:48;;;;;;;28.80;10.70;;;;;;;30.93;44.95;100511.77;89127;1262;94608;-62
2022/08/26 06:49:57;;;;;;;23.20;8.60;;;;;;;30.65;44.05;100507.86;89494;1260;79567;-62
2022/08/26 06:52:13;;;;;;;25.50;8.70;;;;;;;30.29;44.50;100507.04;89497;1260;81697;-63
2022/08/26 06:54:29;;;;;;;20.60;8.50;;;;;;;30.02;44.23;100507.59;89059;1264;98122;-63
2022/08/26 06:56:43;;;;;;;22.00;7.90;;;;;;;29.69;44.42;100511.91;89476;1260;88588;-62
2022/08/26 06:58:53;;;;;;;17.70;7.70;;;;;;;29.59;44.26;100511.30;89507;1260;94658;-65
2022/08/26 07:01:03;;;;;;;17.10;7.30;;;;;;;29.31;44.42;100509.35;89175;1263;80523;-63
2022/08/26 07:03:12;;;;;;;21.30;7.30;;;;;;;29.09;44.75;100506.89;89506;1260;83257;-63
2022/08/26 07:05:29;;;;;;;19.80;7.90;;;;;;;29.10;44.87;100500.19;89488;1260;97568;-61
2022/08/26 07:07:47;;;;;;;15.10;7.20;;;;;;;29.32;45.10;100501.33;89533;1260;88866;-62
2022/08/26 07:09:59;;;;;;;19.20;7.50;;;;;;;29.80;45.62;100502.42;89484;1253;95036;-62
2022/08/26 07:12:11;;;;;;;17.30;6.80;;;;;;;31.24;44.92;100508.92;89535;1260;79885;-64
2022/08/26 07:14:20;;;;;;;17.40;7.40;;;;;;;32.31;44.29;100503.77;89511;1260;81828;-65
2022/08/26 07:16:30;;;;;;;16.90;6.80;;;;;;;33.33;43.23;100500.83;89529;1260;97880;-62
2022/08/26 07:18:41;;;;;;;16.20;6.70;;;;;;;33.92;42.13;100500.64;89505;1260;87852;-63
2022/08/26 07:20:53;;;;;;;17.00;6.70;;;;;;;33.93;39.89;100497.27;89530;1260;93727;-60
2022/08/26 07:23:11;;;;;;;12.00;6.20;;;;;;;33.71;40.80;100495.47;89516;1260;80742;-62
2022/08/26 07:25:22;;;;;;;13.70;6.60;;;;;;;33.89;39.72;100494.13;89491;1260;81507;-63
2022/08/26 07:27:37;;;;;;;14.60;6.10;;;;;;;34.22;39.78;100489.55;89478;1260;99047;-61
2022/08/26 07:29:47;;;;;;;11.60;6.40;;;;;;;35.12;39.16;100493.77;89517;1260;86947;-61
2022/08/26 07:32:02;;;;;;;19.20;6.40;;;;;;;35.71;38.32;100489.13;89500;1260;93973;-63
2022/08/26 07:34:16;;;;;;;18.50;6.00;;;;;;;36.17;37.40;100492.86;89475;1260;79845;-64
2022/08/26 07:36:27;;;;;;;15.10;5.90;;;;;;;36.75;36.72;100487.80;89475;1260;82970;-63
2022/08/26 07:38:44;;;;;;;17.00;6.90;;;;;;;37.18;36.41;100486.81;89445;1260;98580;-63
2022/08/26 07:40:53;;;;;;;21.20;7.40;;;;;;;37.65;35.68;100487.27;89448;1260;87653;-65
2022/08/26 07:43:02;;;;;;;19.50;8.20;;;;;;;37.71;35.33;100482.70;89499;1260;94510;-63
2022/08/26 07:45:15;;;;;;;17.40;7.00;;;;;;;37.73;35.14;100486.62;89458;1260;80051;-62
2022/08/26 07:47:27;;;;;;;15.20;6.20;;;;;;;37.93;34.78;100481.11;89537;1260;81440;-64
2022/08/26 07:49:40;;;;;;;14.40;7.00;;;;;;;38.37;33.55;100478.48;89133;1262;98201;-63
2022/08/26 07:51:52;;;;;;;14.20;6.40;;;;;;;38.68;33.25;100475.20;89485;1260;87354;-62
2022/08/26 07:54:04;;;;;;;14.50;5.80;;;;;;;38.96;33.18;100477.00;89501;1260;95801;-62
2022/08/26 07:56:15;;;;;;;11.30;5.40;;;;;;;38.88;32.68;100473.80;89514;1260;79499;-65
2022/08/26 07:58:29;;;;;;;13.70;6.10;;;;;;;38.93;32.41;100473.23;89284;1262;82752;-62
2022/08/26 08:00:42;;;;;;;13.50;5.70;;;;;;;38.94;32.30;100473.50;89474;1260;97320;-63
2022/08/26 08:02:54;;;;;;;17.40;6.30;;;;;;;39.39;31.59;100478.04;89524;1260;88936;-64
2022/08/26 08:05:10;;;;;;;12.10;5.30;;;;;;;39.72;30.58;100476.36;89494;1260;95311;-62
2022/08/26 08:07:20;;;;;;;11.80;5.40;;;;;;;39.60;30.35;100477.38;89474;1260;79948;-61
2022/08/26 08:09:33;;;;;;;12.30;5.80;;;;;;;39.88;29.89;100472.86;89124;1263;80554;-62
2022/08/26 08:11:44;;;;;;;10.90;5.40;;;;;;;40.00;29.64;100475.11;89475;1260;98062;-61
2022/08/26 08:14:02;;;;;;;15.90;5.80;;;;;;;40.18;29.10;100473.48;89499;1260;88577;-62
2022/08/26 08:16:11;;;;;;;14.30;5.60;;;;;;;40.24;28.28;100473.57;89473;1253;93262;-62
2022/08/26 08:18:27;;;;;;;14.30;6.30;;;;;;;40.30;28.02;100470.48;89483;1260;79985;-62
2022/08/26 08:20:47;;;;;;;13.90;5.80;;;;;;;40.20;28.38;100470.20;89469;1260;82377;-61
2022/08/26 08:22:59;;;;;;;13.10;5.80;;;;;;;40.20;28.82;100469.40;89490;1260;97929;-61
2022/08/26 08:25:13;;;;;;;11.70;5.90;;;;;;;40.40;27.75;100468.97;89474;1260;89774;-61
2022/08/26 08:27:26;;;;;;;13.10;5.50;;;;;;;40.46;28.06;100462.71;89499;1260;94219;-63
2022/08/26 08:29:38;;;;;;;14.00;4.90;;;;;;;40.41;28.49;100463.08;89487;1260;79675;-63
2022/08/26 08:31:51;;;;;;;10.00;5.70;;;;;;;40.67;28.87;100462.80;89555;1260;82899;-58
2022/08/26 08:34:00;;;;;;;10.80;5.60;;;;;;;40.79;28.36;100458.13;89511;1260;97924;-58
2022/08/26 08:36:13;;;;;;;13.50;5.40;;;;;;;40.92;27.37;100458.74;89514;1260;88969;-59
2022/08/26 08:38:26;;;;;;;11.20;5.50;;;;;;;40.88;27.22;100456.52;89054;1264;93405;-58
2022/08/26 08:40:41;;;;;;;10.90;5.60;;;;;;;40.62;27.63;100452.39;89466;1260;80060;-58
2022/08/26 08:42:59;;;;;;;14.20;5.50;;;;;;;40.39;26.60;100458.70;89512;1260;82083;-57
2022/08/26 08:45:14;;;;;;;12.90;5.60;;;;;;;39.59;26.81;100457.95;89461;1260;99268;-58
2022/08/26 08:47:33;;;;;;;11.60;5.30;;;;;;;39.27;27.31;100459.52;89466;1260;88239;-57
2022/08/26 08:49:43;;;;;;;11.30;5.40;;;;;;;39.25;26.78;100454.88;89456;1260;94834;-58
2022/08/26 08:52:01;;;;;;;13.00;5.00;;;;;;;39.37;27.06;100455.95;89526;1260;79497;-58
2022/08/26 08:54:14;;;;;;;11.90;5.50;;;;;;;38.93;26.96;100452.48;89496;1260;82334;-58
2022/08/26 08:56:31;;;;;;;11.40;4.80;;;;;;;38.25;27.56;100450.25;89485;1260;98546;-58
2022/08/26 08:58:53;;;;;;;12.00;5.60;;;;;;;37.76;28.42;100453.66;89473;1260;88491;-57
2022/08/26 09:01:12;;;;;;;10.60;5.00;;;;;;;37.76;28.14;100450.34;89435;1260;92875;-58
2022/08/26 09:03:38;;;;;;;10.90;5.50;;;;;;;37.81;28.52;100449.08;89489;1260;78554;-57
2022/08/26 09:05:50;;;;;;;14.90;5.80;;;;;;;37.78;29.08;100452.16;89469;1260;82832;-56
2022/08/26 09:08:00;;;;;;;;;;;;;;;38.29;28.83;100449.36;89497;1260;98689;-57
2022/08/26 09:10:27;;;;;;;12.20;5.20;;;;;;;38.84;28.96;100449.67;89520;1260;88220;-58
2022/08/26 09:12:37;;;;;;;10.70;5.60;;;;;;;39.17;28.57;100450.63;89160;1263;94960;-57
2022/08/26 09:14:48;;;;;;;12.00;5.20;;;;;;;38.77;28.06;100448.58;89489;1260;80303;-57
2022/08/26 09:17:10;;;;;;;19.70;7.00;;;;;;;38.35;28.31;100448.66;89579;1260;81998;-57
2022/08/26 09:19:33;;;;;;;14.70;5.60;;;;;;;38.01;28.26;100449.10;89498;1260;98298;-63
2022/08/26 09:21:43;;;;;;;13.30;6.00;;;;;;;37.59;28.10;100450.70;89181;1263;87815;-65
2022/08/26 09:23:55;;;;;;;17.90;6.50;;;;;;;37.27;28.26;100449.05;89483;1260;92980;-65
2022/08/26 09:26:17;;;;;;;12.90;6.00;;;;;;;37.08;28.61;100448.42;89502;1260;80085;-65
2022/08/26 09:28:34;;;;;;;10.90;5.60;;;;;;;36.79;28.94;100445.18;89535;1260;81901;-62
2022/08/26 09:31:00;;;;;;;11.30;6.30;;;;;;;36.67;29.09;100444.64;89491;1260;98797;-63
2022/08/26 09:33:15;;;;;;;15.60;5.60;;;;;;;36.39;29.02;100441.64;89492;1260;89130;-63
2022/08/26 09:35:33;;;;;;;23.70;10.90;;;;;;;36.06;29.78;100441.73;89122;1263;93483;-63
2022/08/26 09:37:49;;;;;;;15.90;5.60;;;;;;;35.78;29.94;100445.06;89509;1260;79044;-62
2022/08/26 09:40:16;;;;;;;11.60;5.30;;;;;;;35.44;30.54;100446.35;89548;1254;82144;-58
2022/08/26 09:42:26;;;;;;;11.60;5.20;;;;;;;35.04;30.64;100444.57;89513;1260;98660;-64
2022/08/26 09:44:51;;;;;;;10.10;5.70;;;;;;;34.77;30.52;100437.89;89155;1262;87439;-66
2022/08/26 09:47:07;;;;;;;10.50;5.20;;;;;;;34.56;30.71;100439.77;89501;1260;94229;-63
2022/08/26 09:49:34;;;;;;;20.40;6.60;;;;;;;34.25;30.88;100436.44;89188;1263;79241;-63
2022/08/26 09:52:03;;;;;;;9.90;5.20;;;;;;;33.96;31.22;100433.38;89546;1260;83080;-64
2022/08/26 09:54:27;;;;;;;12.20;5.30;;;;;;;33.90;32.13;100431.59;89547;1260;98536;-63
2022/08/26 09:56:41;;;;;;;10.00;5.30;;;;;;;33.65;32.12;100432.66;89506;1260;87598;-62
2022/08/26 09:58:52;;;;;;;14.10;5.50;;;;;;;33.48;32.39;100429.29;89566;1260;92437;-62
2022/08/26 10:01:09;;;;;;;15.50;5.80;;;;;;;33.40;32.68;100427.98;89165;1263;79407;-64
2022/08/26 10:03:31;;;;;;;13.20;5.70;;;;;;;33.33;32.93;100428.83;89559;1260;81833;-65
2022/08/26 10:05:59;;;;;;;12.40;5.90;;;;;;;33.40;33.06;100426.05;89481;1260;98573;-66
2022/08/26 10:08:28;;;;;;;12.30;5.30;;;;;;;33.21;33.20;100425.60;89510;1260;87910;-66
2022/08/26 10:10:45;;;;;;;17.00;6.60;;;;;;;33.09;32.68;100427.37;89476;1260;94232;-63
2022/08/26 10:13:04;;;;;;;12.30;6.20;;;;;;;32.78;33.17;100425.17;89474;1260;80033;-63
2022/08/26 10:15:24;;;;;;;22.20;6.70;;;;;;;32.79;33.28;100425.23;89495;1260;82368;-65
2022/08/26 10:17:41;;;;;;;11.70;5.30;;;;;;;32.77;33.07;100422.08;89545;1260;98652;-64
2022/08/26 10:19:59;;;;;;;14.10;4.80;;;;;;;32.99;32.89;100418.77;89484;1260;88423;-64
2022/08/26 10:22:18;;;;;;;12.20;6.20;;;;;;;33.12;33.46;100414.70;89507;1260;93307;-65